• Join FlightAware (Why Join?)
  • Login
  • US Flag 
Gobble Gobble! 
08:38AM EST


 

Airport Tracker/Info


-or-


 

Live Flight TrackerFlight Track Log ✈ EJA951 ✈ 11-Sep-2013 ✈ KSWF - KMQS

Flight Track Log - Related Links

Times and Time Zones

All times are in EDT time to prevent confusion due to time zone crossing. See the EJA951 flight status page for this flight to view local times or setup timezone preferences in your user account.

Time Position Orientation Groundspeed Altitude Reporting Facility
EDT Latitude Longitude Course Direction KTS MPH feet Rate Location/Type
05:37PM 41.4667 -74.3167 257° West 259 298 5,000  Level New York TRACON
05:38PM 41.4500 -74.4167 257° West 253 291 5,000  Level New York TRACON
05:39PM 41.4333 -74.5167 257° West 268 308 5,000  Level New York TRACON
05:40PM 41.4000 -74.6000 242° Southwest 272 313 5,000  Level New York TRACON
05:41PM 41.3500 -74.6667 225° Southwest 259 298 5,000 120 Level New York TRACON
05:55PM 40.6333 -75.4667 220° Southwest 287 330 6,900 120 Climbing Philadelphia TRACON
05:56PM 40.5167 -75.5000 192° South 267 307 7,000  Climbing Philadelphia TRACON
05:57PM 40.4500 -75.5167 191° South 267 307 7,000  Level Philadelphia TRACON
05:58PM 40.3833 -75.5333 191° South 269 310 7,000  Level Philadelphia TRACON
05:59PM 40.3000 -75.5500 189° South 271 312 7,000 -480 Level Philadelphia TRACON
06:00PM 40.2333 -75.5833 201° Southwest 266 306 6,100 -540 Descending Philadelphia TRACON
06:01PM 40.1667 -75.6000 191° South 264 304 6,000 -240 Descending Philadelphia TRACON
06:02PM 40.0833 -75.6167 189° South 265 305 5,700 -1,140 Descending Philadelphia TRACON
06:03PM 40.0333 -75.6167 180° South 244 281 4,100 -1,680 Descending Philadelphia TRACON
06:04PM 39.9667 -75.6333 191° South 183 211 2,400 -780 Descending Philadelphia TRACON
06:05PM 39.9500 -75.6833 247° West 185 213 2,400  Level Philadelphia TRACON
06:06PM 39.9667 -75.7500 220° Southwest 189 217 2,400  Level Philadelphia TRACON
06:08PM 39.9683 -75.8484 217° Southwest  Level FlightAware Approximate
06:15PM 39.9667 -75.8500 217° Southwest  Level FlightAware Approximate
06:16PM 39.9790 -75.8655 217° Southwest  Level Estimated